Ana Sayfa
METAR-TAF:

METAR-TAF

Havaalanları :

Clemson, Güney Carolina, Amerika Birleşik Devletleri

Enlem: 34-40-20N, Boylam: 082-52-53W, yükseklik: 272 m

Güncel hava durumu gözlemi

Rapor saat 01:54 UTC de 19 dakika önce yapıldı.
Rüzgar doğudan 3 kt
Sıcaklık 10°C
Nem 62%
Basınç 1027 hPa
Görüş mesafesi: 16.1 km
Açık gökyüzü

METAR: KCEU 080154Z AUTO 10003KT 10SM CLR 10/03 A3033 RMK AO2 SLP269 T01000033

Saat: 21:13 (02:13 UTC)


TAF: eksik

4.000'den fazla havaalanı için hava durumu gözlemleri ve tahminleri (METAR ve TAF raporları).

Kullanılabilir istasyonlar harita üzerinde sarı ve kırmızı noktalarla gösterilir.

İstasyonun adını görmek için fareyi noktanın üzerinde gezdirin.

Sonrasında hava gözlem ve tahminlerini görmek için tıklayın.

Haritayı değiştirmek için: yaklaştırmak için siyah artı işaretli yeşil düğmeye ve uzaklaştırmak için de eksi işaretli düğmeye hızla tıklayın; bitişik haritalar için yeşil okları kullanın.


METAR-TAF: